sensor_id;sensor_type;location;lat;lon;timestamp;P1;durP1;ratioP1;P2;durP2;ratioP2
70829;SDS011;58451;51.550;7.208;2022-11-15T06:02:10;8.70;;;3.70;;
70829;SDS011;58451;51.550;7.208;2022-11-15T06:04:01;7.90;;;3.20;;
70829;SDS011;58451;51.550;7.208;2022-11-15T06:05:51;8.10;;;3.80;;
70829;SDS011;58451;51.550;7.208;2022-11-15T06:07:42;8.10;;;3.60;;
70829;SDS011;58451;51.550;7.208;2022-11-15T06:09:34;8.40;;;3.90;;
70829;SDS011;58451;51.550;7.208;2022-11-15T06:11:24;9.60;;;4.30;;
70829;SDS011;58451;51.550;7.208;2022-11-15T06:13:14;8.80;;;3.80;;
70829;SDS011;58451;51.550;7.208;2022-11-15T06:15:05;8.70;;;3.80;;
70829;SDS011;58451;51.550;7.208;2022-11-15T06:16:55;7.30;;;3.50;;
70829;SDS011;58451;51.550;7.208;2022-11-15T06:18:46;10.90;;;3.90;;
70829;SDS011;58451;51.550;7.208;2022-11-15T06:20:36;9.00;;;4.10;;
70829;SDS011;58451;51.550;7.208;2022-11-15T06:22:27;8.80;;;3.50;;
70829;SDS011;58451;51.550;7.208;2022-11-15T06:24:18;7.60;;;3.10;;
70829;SDS011;58451;51.550;7.208;2022-11-15T06:26:08;8.00;;;3.90;;
70829;SDS011;58451;51.550;7.208;2022-11-15T06:27:59;8.60;;;3.90;;
70829;SDS011;58451;51.550;7.208;2022-11-15T06:29:50;10.60;;;4.50;;
70829;SDS011;58451;51.550;7.208;2022-11-15T06:31:40;8.00;;;2.90;;
70829;SDS011;58451;51.550;7.208;2022-11-15T06:33:31;8.00;;;3.50;;
70829;SDS011;58451;51.550;7.208;2022-11-15T06:35:22;8.20;;;3.60;;
70829;SDS011;58451;51.550;7.208;2022-11-15T06:37:12;7.70;;;3.60;;
70829;SDS011;58451;51.550;7.208;2022-11-15T06:39:04;8.30;;;3.30;;
70829;SDS011;58451;51.550;7.208;2022-11-15T06:40:54;8.20;;;3.50;;
70829;SDS011;58451;51.550;7.208;2022-11-15T06:42:45;7.60;;;3.90;;
70829;SDS011;58451;51.550;7.208;2022-11-15T06:44:36;7.00;;;3.00;;
70829;SDS011;58451;51.550;7.208;2022-11-15T06:46:27;8.40;;;3.40;;
70829;SDS011;58451;51.550;7.208;2022-11-15T06:48:17;8.10;;;3.00;;
70829;SDS011;58451;51.550;7.208;2022-11-15T06:50:08;7.50;;;3.00;;
70829;SDS011;58451;51.550;7.208;2022-11-15T06:51:59;8.30;;;3.50;;
70829;SDS011;58451;51.550;7.208;2022-11-15T06:53:49;8.30;;;2.90;;
70829;SDS011;58451;51.550;7.208;2022-11-15T06:55:40;6.20;;;2.30;;
70829;SDS011;58451;51.550;7.208;2022-11-15T06:57:31;8.00;;;2.60;;
70829;SDS011;58451;51.550;7.208;2022-11-15T06:59:22;6.70;;;2.60;;
70829;SDS011;58451;51.550;7.208;2022-11-15T07:01:13;6.00;;;2.40;;
70829;SDS011;58451;51.550;7.208;2022-11-15T07:03:04;6.80;;;2.30;;
70829;SDS011;58451;51.550;7.208;2022-11-15T07:04:54;6.90;;;2.40;;
70829;SDS011;58451;51.550;7.208;2022-11-15T07:06:47;5.90;;;2.40;;
70829;SDS011;58451;51.550;7.208;2022-11-15T07:08:38;6.30;;;2.60;;
70829;SDS011;58451;51.550;7.208;2022-11-15T07:10:29;6.00;;;2.50;;
70829;SDS011;58451;51.550;7.208;2022-11-15T07:12:20;4.60;;;1.50;;
70829;SDS011;58451;51.550;7.208;2022-11-15T07:14:10;5.90;;;2.30;;
70829;SDS011;58451;51.550;7.208;2022-11-15T07:16:09;5.30;;;2.00;;
70829;SDS011;58451;51.550;7.208;2022-11-15T07:18:01;5.00;;;1.70;;
70829;SDS011;58451;51.550;7.208;2022-11-15T07:19:52;5.70;;;2.10;;
70829;SDS011;58451;51.550;7.208;2022-11-15T07:21:42;6.50;;;2.00;;
70829;SDS011;58451;51.550;7.208;2022-11-15T07:23:35;5.00;;;2.00;;
70829;SDS011;58451;51.550;7.208;2022-11-15T07:25:27;4.90;;;2.10;;
70829;SDS011;58451;51.550;7.208;2022-11-15T07:27:19;5.30;;;2.00;;
70829;SDS011;58451;51.550;7.208;2022-11-15T07:29:09;5.10;;;1.80;;
70829;SDS011;58451;51.550;7.208;2022-11-15T07:31:04;3.90;;;1.80;;
70829;SDS011;58451;51.550;7.208;2022-11-15T07:32:58;4.80;;;1.90;;
70829;SDS011;58451;51.550;7.208;2022-11-15T07:34:50;5.50;;;1.90;;
70829;SDS011;58451;51.550;7.208;2022-11-15T07:36:40;5.60;;;2.00;;
70829;SDS011;58451;51.550;7.208;2022-11-15T07:38:32;4.80;;;1.60;;
70829;SDS011;58451;51.550;7.208;2022-11-15T07:40:32;6.00;;;1.60;;
70829;SDS011;58451;51.550;7.208;2022-11-15T07:42:23;4.80;;;1.30;;
70829;SDS011;58451;51.550;7.208;2022-11-15T07:44:32;4.90;;;1.60;;
70829;SDS011;58451;51.550;7.208;2022-11-15T07:46:23;4.90;;;1.90;;
70829;SDS011;58451;51.550;7.208;2022-11-15T07:48:13;4.00;;;1.30;;
70829;SDS011;58451;51.550;7.208;2022-11-15T07:50:04;6.00;;;1.50;;
70829;SDS011;58451;51.550;7.208;2022-11-15T07:51:55;3.30;;;1.20;;
70829;SDS011;58451;51.550;7.208;2022-11-15T07:53:45;5.00;;;1.60;;
70829;SDS011;58451;51.550;7.208;2022-11-15T07:55:36;3.80;;;1.20;;
70829;SDS011;58451;51.550;7.208;2022-11-15T07:57:26;4.70;;;1.50;;
70829;SDS011;58451;51.550;7.208;2022-11-15T07:59:17;4.40;;;1.20;;
70829;SDS011;58451;51.550;7.208;2022-11-15T08:01:09;3.90;;;1.40;;
70829;SDS011;58451;51.550;7.208;2022-11-15T08:05:04;5.30;;;1.00;;
70829;SDS011;58451;51.550;7.208;2022-11-15T08:06:55;3.30;;;1.20;;
70829;SDS011;58451;51.550;7.208;2022-11-15T08:08:48;4.50;;;1.40;;
70829;SDS011;58451;51.550;7.208;2022-11-15T08:10:38;3.50;;;1.10;;
70829;SDS011;58451;51.550;7.208;2022-11-15T08:12:30;3.80;;;1.10;;
70829;SDS011;58451;51.550;7.208;2022-11-15T08:14:21;2.80;;;1.00;;
70829;SDS011;58451;51.550;7.208;2022-11-15T08:16:12;5.30;;;1.40;;
70829;SDS011;58451;51.550;7.208;2022-11-15T08:18:10;3.70;;;1.10;;
70829;SDS011;58451;51.550;7.208;2022-11-15T08:20:09;3.20;;;1.00;;
70829;SDS011;58451;51.550;7.208;2022-11-15T08:22:00;3.80;;;1.40;;
70829;SDS011;58451;51.550;7.208;2022-11-15T08:23:51;5.70;;;1.10;;
70829;SDS011;58451;51.550;7.208;2022-11-15T08:25:41;6.00;;;1.20;;
70829;SDS011;58451;51.550;7.208;2022-11-15T08:27:33;3.10;;;1.20;;
70829;SDS011;58451;51.550;7.208;2022-11-15T08:29:23;4.10;;;1.20;;
70829;SDS011;58451;51.550;7.208;2022-11-15T08:31:15;3.10;;;1.10;;
70829;SDS011;58451;51.550;7.208;2022-11-15T08:33:35;3.70;;;1.30;;
70829;SDS011;58451;51.550;7.208;2022-11-15T08:35:30;4.00;;;1.10;;
70829;SDS011;58451;51.550;7.208;2022-11-15T08:37:21;4.50;;;1.40;;
70829;SDS011;58451;51.550;7.208;2022-11-15T08:39:12;4.00;;;1.10;;
70829;SDS011;58451;51.550;7.208;2022-11-15T08:41:04;3.90;;;1.20;;
70829;SDS011;58451;51.550;7.208;2022-11-15T08:42:56;3.80;;;0.90;;
70829;SDS011;58451;51.550;7.208;2022-11-15T08:44:48;3.20;;;1.00;;
70829;SDS011;58451;51.550;7.208;2022-11-15T08:46:39;3.20;;;0.80;;
70829;SDS011;58451;51.550;7.208;2022-11-15T08:48:31;2.60;;;0.90;;
70829;SDS011;58451;51.550;7.208;2022-11-15T08:50:22;3.30;;;0.90;;
70829;SDS011;58451;51.550;7.208;2022-11-15T08:52:14;3.80;;;0.70;;
70829;SDS011;58451;51.550;7.208;2022-11-15T08:54:04;2.60;;;0.90;;
70829;SDS011;58451;51.550;7.208;2022-11-15T08:55:55;2.30;;;0.70;;
70829;SDS011;58451;51.550;7.208;2022-11-15T08:57:45;3.20;;;0.90;;
70829;SDS011;58451;51.550;7.208;2022-11-15T08:59:22;2.80;;;0.90;;
70829;SDS011;58451;51.550;7.208;2022-11-15T09:01:21;3.90;;;0.90;;
70829;SDS011;58451;51.550;7.208;2022-11-15T09:03:12;3.70;;;0.90;;
70829;SDS011;58451;51.550;7.208;2022-11-15T09:05:03;3.30;;;1.00;;
70829;SDS011;58451;51.550;7.208;2022-11-15T09:06:58;3.60;;;0.70;;
70829;SDS011;58451;51.550;7.208;2022-11-15T09:08:49;2.50;;;0.70;;
70829;SDS011;58451;51.550;7.208;2022-11-15T09:10:40;3.10;;;1.00;;
70829;SDS011;58451;51.550;7.208;2022-11-15T09:12:30;2.60;;;0.80;;
70829;SDS011;58451;51.550;7.208;2022-11-15T09:14:21;3.30;;;0.80;;
70829;SDS011;58451;51.550;7.208;2022-11-15T09:16:12;3.40;;;0.90;;
70829;SDS011;58451;51.550;7.208;2022-11-15T09:18:06;2.60;;;0.70;;
70829;SDS011;58451;51.550;7.208;2022-11-15T09:19:56;3.70;;;0.90;;
70829;SDS011;58451;51.550;7.208;2022-11-15T09:21:46;2.50;;;0.80;;
70829;SDS011;58451;51.550;7.208;2022-11-15T09:24:02;5.00;;;0.80;;
70829;SDS011;58451;51.550;7.208;2022-11-15T09:26:00;3.90;;;0.80;;
70829;SDS011;58451;51.550;7.208;2022-11-15T09:27:53;2.90;;;0.80;;
70829;SDS011;58451;51.550;7.208;2022-11-15T09:29:44;3.30;;;0.80;;
70829;SDS011;58451;51.550;7.208;2022-11-15T09:31:34;3.00;;;1.00;;
70829;SDS011;58451;51.550;7.208;2022-11-15T09:33:27;2.70;;;0.80;;
70829;SDS011;58451;51.550;7.208;2022-11-15T09:35:40;3.50;;;0.70;;
70829;SDS011;58451;51.550;7.208;2022-11-15T09:37:32;3.40;;;0.70;;
70829;SDS011;58451;51.550;7.208;2022-11-15T09:39:23;3.20;;;0.70;;
70829;SDS011;58451;51.550;7.208;2022-11-15T09:48:53;2.10;;;0.50;;
70829;SDS011;58451;51.550;7.208;2022-11-15T09:51:04;3.10;;;0.90;;
70829;SDS011;58451;51.550;7.208;2022-11-15T09:52:43;3.10;;;0.80;;
70829;SDS011;58451;51.550;7.208;2022-11-15T09:54:43;3.20;;;0.60;;
70829;SDS011;58451;51.550;7.208;2022-11-15T09:56:29;2.90;;;0.60;;
70829;SDS011;58451;51.550;7.208;2022-11-15T10:00:48;1.90;;;0.40;;
70829;SDS011;58451;51.550;7.208;2022-11-15T10:04:15;1.80;;;0.70;;
70829;SDS011;58451;51.550;7.208;2022-11-15T10:05:51;2.00;;;0.60;;
70829;SDS011;58451;51.550;7.208;2022-11-15T10:08:06;2.80;;;0.50;;
70829;SDS011;58451;51.550;7.208;2022-11-15T10:09:55;2.10;;;0.40;;
70829;SDS011;58451;51.550;7.208;2022-11-15T10:11:36;2.80;;;0.60;;
70829;SDS011;58451;51.550;7.208;2022-11-15T10:13:23;3.30;;;0.60;;
70829;SDS011;58451;51.550;7.208;2022-11-15T10:15:11;2.50;;;0.80;;
70829;SDS011;58451;51.550;7.208;2022-11-15T10:17:08;2.10;;;0.60;;
70829;SDS011;58451;51.550;7.208;2022-11-15T10:19:03;4.00;;;0.60;;
70829;SDS011;58451;51.550;7.208;2022-11-15T10:20:58;2.30;;;0.50;;
70829;SDS011;58451;51.550;7.208;2022-11-15T10:22:50;3.50;;;0.60;;
70829;SDS011;58451;51.550;7.208;2022-11-15T10:24:33;1.90;;;0.50;;
70829;SDS011;58451;51.550;7.208;2022-11-15T10:26:16;3.00;;;0.60;;
70829;SDS011;58451;51.550;7.208;2022-11-15T10:30:23;1.70;;;0.40;;
70829;SDS011;58451;51.550;7.208;2022-11-15T10:32:05;1.60;;;0.40;;
70829;SDS011;58451;51.550;7.208;2022-11-15T10:33:38;1.40;;;0.40;;
70829;SDS011;58451;51.550;7.208;2022-11-15T10:35:26;1.10;;;0.30;;
70829;SDS011;58451;51.550;7.208;2022-11-15T10:37:00;1.70;;;0.50;;
70829;SDS011;58451;51.550;7.208;2022-11-15T10:40:23;1.50;;;0.40;;
70829;SDS011;58451;51.550;7.208;2022-11-15T10:41:56;2.10;;;0.50;;
70829;SDS011;58451;51.550;7.208;2022-11-15T10:43:28;3.60;;;0.60;;
70829;SDS011;58451;51.550;7.208;2022-11-15T10:45:00;3.60;;;0.60;;
70829;SDS011;58451;51.550;7.208;2022-11-15T10:46:33;2.40;;;0.60;;
70829;SDS011;58451;51.550;7.208;2022-11-15T10:48:23;1.40;;;0.50;;
70829;SDS011;58451;51.550;7.208;2022-11-15T10:50:03;4.90;;;0.60;;
70829;SDS011;58451;51.550;7.208;2022-11-15T10:52:18;2.00;;;0.40;;
70829;SDS011;58451;51.550;7.208;2022-11-15T10:53:51;3.20;;;0.60;;
70829;SDS011;58451;51.550;7.208;2022-11-15T10:55:30;3.10;;;0.50;;
70829;SDS011;58451;51.550;7.208;2022-11-15T10:57:15;3.00;;;0.60;;
70829;SDS011;58451;51.550;7.208;2022-11-15T10:58:55;2.20;;;0.40;;
70829;SDS011;58451;51.550;7.208;2022-11-15T11:00:36;1.80;;;0.40;;
70829;SDS011;58451;51.550;7.208;2022-11-15T11:04:09;2.60;;;0.40;;
70829;SDS011;58451;51.550;7.208;2022-11-15T11:05:41;3.30;;;0.40;;
70829;SDS011;58451;51.550;7.208;2022-11-15T11:07:22;1.90;;;0.50;;
70829;SDS011;58451;51.550;7.208;2022-11-15T11:10:30;1.50;;;0.50;;
70829;SDS011;58451;51.550;7.208;2022-11-15T11:12:31;1.50;;;0.50;;
70829;SDS011;58451;51.550;7.208;2022-11-15T11:14:23;1.90;;;0.30;;
70829;SDS011;58451;51.550;7.208;2022-11-15T11:16:33;1.30;;;0.40;;
70829;SDS011;58451;51.550;7.208;2022-11-15T11:18:25;1.20;;;0.50;;
70829;SDS011;58451;51.550;7.208;2022-11-15T11:24:36;2.50;;;0.50;;
70829;SDS011;58451;51.550;7.208;2022-11-15T11:26:38;2.50;;;0.50;;
70829;SDS011;58451;51.550;7.208;2022-11-15T11:28:27;1.30;;;0.50;;
70829;SDS011;58451;51.550;7.208;2022-11-15T11:30:14;2.30;;;0.40;;
70829;SDS011;58451;51.550;7.208;2022-11-15T11:35:08;0.90;;;0.30;;
70829;SDS011;58451;51.550;7.208;2022-11-15T11:37:04;4.00;;;0.50;;
70829;SDS011;58451;51.550;7.208;2022-11-15T11:50:32;3.70;;;0.60;;
70829;SDS011;58451;51.550;7.208;2022-11-15T11:52:28;2.50;;;0.60;;
70829;SDS011;58451;51.550;7.208;2022-11-15T11:56:15;2.00;;;0.50;;
70829;SDS011;58451;51.550;7.208;2022-11-15T12:00:21;1.80;;;0.50;;
70829;SDS011;58451;51.550;7.208;2022-11-15T12:01:54;2.30;;;0.60;;
70829;SDS011;58451;51.550;7.208;2022-11-15T12:03:40;3.20;;;0.50;;
70829;SDS011;58451;51.550;7.208;2022-11-15T20:30:21;3.70;;;1.30;;
70829;SDS011;58451;51.550;7.208;2022-11-15T20:31:53;4.00;;;1.40;;
